sensor_id;sensor_type;location;lat;lon;timestamp;pressure;altitude;pressure_sealevel;temperature;humidity
58092;BME280;43896;48.178;11.578;2023-04-28T00:16:08;95765.94;;;9.77;67.59
58092;BME280;43896;48.178;11.578;2023-04-28T00:37:29;95771.19;;;10.03;66.89
58092;BME280;43896;48.178;11.578;2023-04-28T01:19:54;95693.06;;;9.79;66.59
58092;BME280;43896;48.178;11.578;2023-04-28T01:27:04;95746.25;;;10.07;67.13
58092;BME280;43896;48.178;11.578;2023-04-28T02:02:04;95663.44;;;9.34;68.83
58092;BME280;43896;48.178;11.578;2023-04-28T02:22:11;95765.81;;;11.23;63.95
58092;BME280;43896;48.178;11.578;2023-04-28T02:24:59;95740.63;;;10.96;64.28
58092;BME280;43896;48.178;11.578;2023-04-28T02:31:11;95697.19;;;10.16;66.21
58092;BME280;43896;48.178;11.578;2023-04-28T02:37:44;95675.09;;;9.58;68.33
58092;BME280;43896;48.178;11.578;2023-04-28T02:40:48;95685.03;;;9.20;70.79
58092;BME280;43896;48.178;11.578;2023-04-28T02:43:56;95660.16;;;9.06;70.91
58092;BME280;43896;48.178;11.578;2023-04-28T02:53:45;95652.69;;;9.19;69.81
58092;BME280;43896;48.178;11.578;2023-04-28T02:56:53;95660.09;;;9.24;70.83
58092;BME280;43896;48.178;11.578;2023-04-28T03:03:12;95668.13;;;9.23;72.06
58092;BME280;43896;48.178;11.578;2023-04-28T03:23:00;95681.84;;;10.03;69.98
58092;BME280;43896;48.178;11.578;2023-04-28T03:35:42;95749.81;;;9.98;72.38
58092;BME280;43896;48.178;11.578;2023-04-28T03:42:25;95663.75;;;9.57;74.54
58092;BME280;43896;48.178;11.578;2023-04-28T03:51:43;95646.22;;;10.09;71.04
58092;BME280;43896;48.178;11.578;2023-04-28T04:04:16;95699.50;;;10.78;71.49
58092;BME280;43896;48.178;11.578;2023-04-28T04:27:15;95647.03;;;9.06;80.25
58092;BME280;43896;48.178;11.578;2023-04-28T04:29:47;95700.03;;;9.62;78.78
58092;BME280;43896;48.178;11.578;2023-04-28T04:32:14;95652.97;;;8.90;79.25
58092;BME280;43896;48.178;11.578;2023-04-28T04:34:56;95677.50;;;9.25;80.23
58092;BME280;43896;48.178;11.578;2023-04-28T04:37:24;95672.97;;;9.96;77.13
58092;BME280;43896;48.178;11.578;2023-04-28T04:39:50;95637.22;;;9.34;78.26
58092;BME280;43896;48.178;11.578;2023-04-28T04:42:21;95634.75;;;9.07;78.67
58092;BME280;43896;48.178;11.578;2023-04-28T04:44:47;95673.63;;;9.98;76.30
58092;BME280;43896;48.178;11.578;2023-04-28T04:47:12;95733.19;;;10.83;73.48
58092;BME280;43896;48.178;11.578;2023-04-28T04:49:37;95658.03;;;10.64;73.30
58092;BME280;43896;48.178;11.578;2023-04-28T04:52:03;95737.13;;;10.28;75.84
58092;BME280;43896;48.178;11.578;2023-04-28T04:54:30;95673.53;;;9.21;79.21
58092;BME280;43896;48.178;11.578;2023-04-28T04:56:58;95658.66;;;9.04;80.30
58092;BME280;43896;48.178;11.578;2023-04-28T04:59:24;95706.09;;;9.36;79.62
58092;BME280;43896;48.178;11.578;2023-04-28T05:01:49;95662.34;;;8.93;79.77
58092;BME280;43896;48.178;11.578;2023-04-28T05:04:15;95726.00;;;9.39;79.87
58092;BME280;43896;48.178;11.578;2023-04-28T05:06:40;95714.03;;;9.45;80.16
58092;BME280;43896;48.178;11.578;2023-04-28T05:09:06;95717.69;;;9.26;79.31
58092;BME280;43896;48.178;11.578;2023-04-28T05:11:31;95680.75;;;9.80;76.55
58092;BME280;43896;48.178;11.578;2023-04-28T05:13:56;95642.56;;;9.85;75.44
58092;BME280;43896;48.178;11.578;2023-04-28T05:16:22;95734.31;;;10.72;74.45
58092;BME280;43896;48.178;11.578;2023-04-28T05:18:47;95753.63;;;11.05;72.83
58092;BME280;43896;48.178;11.578;2023-04-28T05:21:13;95685.84;;;10.24;74.44
58092;BME280;43896;48.178;11.578;2023-04-28T05:23:38;95710.56;;;9.97;76.31
58092;BME280;43896;48.178;11.578;2023-04-28T05:26:14;95705.66;;;10.02;75.35
58092;BME280;43896;48.178;11.578;2023-04-28T05:28:40;95672.47;;;9.32;77.05
58092;BME280;43896;48.178;11.578;2023-04-28T05:31:05;95669.66;;;9.94;74.87
58092;BME280;43896;48.178;11.578;2023-04-28T05:33:31;95694.72;;;10.74;77.73
58092;BME280;43896;48.178;11.578;2023-04-28T05:35:56;95679.88;;;9.71;75.72
58092;BME280;43896;48.178;11.578;2023-04-28T05:38:22;95674.06;;;9.51;79.62
58092;BME280;43896;48.178;11.578;2023-04-28T05:40:47;95683.16;;;9.38;78.92
58092;BME280;43896;48.178;11.578;2023-04-28T05:43:13;95658.28;;;9.25;77.91
58092;BME280;43896;48.178;11.578;2023-04-28T05:45:38;95672.97;;;9.35;77.83
58092;BME280;43896;48.178;11.578;2023-04-28T05:48:04;95716.44;;;9.64;78.45
58092;BME280;43896;48.178;11.578;2023-04-28T05:50:33;95662.97;;;9.65;76.64
58092;BME280;43896;48.178;11.578;2023-04-28T05:53:00;95702.66;;;9.97;76.16
58092;BME280;43896;48.178;11.578;2023-04-28T05:55:26;95695.38;;;9.82;76.82
58092;BME280;43896;48.178;11.578;2023-04-28T05:57:59;95670.50;;;9.60;76.95
58092;BME280;43896;48.178;11.578;2023-04-28T06:00:25;95659.94;;;9.52;76.94
58092;BME280;43896;48.178;11.578;2023-04-28T06:19:50;95649.56;;;9.76;75.88
58092;BME280;43896;48.178;11.578;2023-04-28T06:37:31;95628.94;;;10.49;72.23
58092;BME280;43896;48.178;11.578;2023-04-28T06:40:39;95630.41;;;10.84;71.34
58092;BME280;43896;48.178;11.578;2023-04-28T06:50:40;95718.53;;;11.71;71.03
58092;BME280;43896;48.178;11.578;2023-04-28T07:10:59;95705.06;;;12.53;69.50
58092;BME280;43896;48.178;11.578;2023-04-28T07:14:14;95697.06;;;12.38;69.31
58092;BME280;43896;48.178;11.578;2023-04-28T07:16:56;95616.63;;;11.71;69.44
58092;BME280;43896;48.178;11.578;2023-04-28T07:19:30;95639.69;;;12.40;68.26
58092;BME280;43896;48.178;11.578;2023-04-28T07:22:04;95657.78;;;12.74;67.35
58092;BME280;43896;48.178;11.578;2023-04-28T07:25:21;95690.31;;;13.13;67.18
58092;BME280;43896;48.178;11.578;2023-04-28T07:36:02;95592.66;;;11.89;69.26
58092;BME280;43896;48.178;11.578;2023-04-28T07:49:24;95704.28;;;12.99;68.26
58092;BME280;43896;48.178;11.578;2023-04-28T07:51:56;95694.25;;;12.94;68.42
58092;BME280;43896;48.178;11.578;2023-04-28T07:55:10;95638.75;;;12.56;67.43
58092;BME280;43896;48.178;11.578;2023-04-28T07:58:20;95625.28;;;12.51;67.67
58092;BME280;43896;48.178;11.578;2023-04-28T08:01:42;95703.22;;;13.08;68.31
58092;BME280;43896;48.178;11.578;2023-04-28T08:05:01;95634.00;;;11.97;69.72
58092;BME280;43896;48.178;11.578;2023-04-28T08:14:11;95706.03;;;12.83;70.82
58092;BME280;43896;48.178;11.578;2023-04-28T08:44:49;95633.63;;;11.52;76.90
58092;BME280;43896;48.178;11.578;2023-04-28T08:47:27;95586.53;;;11.57;75.23
58092;BME280;43896;48.178;11.578;2023-04-28T08:53:11;95644.56;;;11.80;77.00
58092;BME280;43896;48.178;11.578;2023-04-28T08:56:30;95590.88;;;11.34;78.55
58092;BME280;43896;48.178;11.578;2023-04-28T09:00:11;95668.66;;;11.69;78.28
58092;BME280;43896;48.178;11.578;2023-04-28T09:05:57;95603.41;;;11.32;77.75
58092;BME280;43896;48.178;11.578;2023-04-28T09:09:29;95577.63;;;11.02;77.92
58092;BME280;43896;48.178;11.578;2023-04-28T09:18:45;95601.69;;;11.55;76.24
58092;BME280;43896;48.178;11.578;2023-04-28T09:21:59;95644.91;;;12.17;75.50
58092;BME280;43896;48.178;11.578;2023-04-28T09:24:53;95589.25;;;12.12;74.35
58092;BME280;43896;48.178;11.578;2023-04-28T09:42:04;95562.69;;;12.22;75.71
58092;BME280;43896;48.178;11.578;2023-04-28T09:48:53;95558.09;;;11.92;78.11
58092;BME280;43896;48.178;11.578;2023-04-28T09:52:19;95589.03;;;11.90;80.51
58092;BME280;43896;48.178;11.578;2023-04-28T10:06:14;95594.94;;;12.55;76.55
58092;BME280;43896;48.178;11.578;2023-04-28T10:12:15;95584.22;;;11.62;81.29
58092;BME280;43896;48.178;11.578;2023-04-28T10:14:41;95563.91;;;11.40;81.75
58092;BME280;43896;48.178;11.578;2023-04-28T10:17:07;95558.81;;;11.70;79.58
58092;BME280;43896;48.178;11.578;2023-04-28T10:19:35;95567.69;;;11.77;80.15
58092;BME280;43896;48.178;11.578;2023-04-28T10:27:40;95556.94;;;12.18;77.82
58092;BME280;43896;48.178;11.578;2023-04-28T10:30:20;95540.31;;;12.17;77.38
58092;BME280;43896;48.178;11.578;2023-04-28T10:33:23;95634.38;;;12.71;78.66
58092;BME280;43896;48.178;11.578;2023-04-28T10:35:51;95593.28;;;12.54;78.44
58092;BME280;43896;48.178;11.578;2023-04-28T10:38:18;95532.03;;;11.97;80.41
58092;BME280;43896;48.178;11.578;2023-04-28T10:40:53;95588.22;;;12.44;79.84
58092;BME280;43896;48.178;11.578;2023-04-28T10:43:33;95560.34;;;12.04;81.10
58092;BME280;43896;48.178;11.578;2023-04-28T10:46:11;95532.28;;;11.79;81.53
58092;BME280;43896;48.178;11.578;2023-04-28T10:56:21;95609.66;;;12.18;82.57
58092;BME280;43896;48.178;11.578;2023-04-28T10:59:24;95526.44;;;11.61;83.08
58092;BME280;43896;48.178;11.578;2023-04-28T11:01:50;95583.66;;;12.15;83.18
58092;BME280;43896;48.178;11.578;2023-04-28T11:04:23;95578.38;;;12.15;82.11
58092;BME280;43896;48.178;11.578;2023-04-28T11:07:15;95541.66;;;11.74;82.26
58092;BME280;43896;48.178;11.578;2023-04-28T11:12:13;95560.56;;;12.17;81.18
58092;BME280;43896;48.178;11.578;2023-04-28T11:14:42;95593.03;;;12.41;81.24
58092;BME280;43896;48.178;11.578;2023-04-28T11:17:10;95597.31;;;12.65;80.16
58092;BME280;43896;48.178;11.578;2023-04-28T11:19:45;95627.09;;;12.97;79.93
58092;BME280;43896;48.178;11.578;2023-04-28T11:22:17;95611.84;;;12.84;79.27
58092;BME280;43896;48.178;11.578;2023-04-28T11:25:01;95595.91;;;12.77;79.33
58092;BME280;43896;48.178;11.578;2023-04-28T11:27:31;95641.72;;;12.84;80.85
58092;BME280;43896;48.178;11.578;2023-04-28T11:29:59;95639.22;;;13.06;80.18
58092;BME280;43896;48.178;11.578;2023-04-28T11:32:27;95588.94;;;12.38;81.75
58092;BME280;43896;48.178;11.578;2023-04-28T11:34:52;95570.53;;;12.53;80.37
58092;BME280;43896;48.178;11.578;2023-04-28T11:37:18;95570.63;;;12.45;80.44
58092;BME280;43896;48.178;11.578;2023-04-28T11:39:45;95583.13;;;12.66;80.22
58092;BME280;43896;48.178;11.578;2023-04-28T11:42:11;95568.19;;;12.58;80.69
58092;BME280;43896;48.178;11.578;2023-04-28T11:44:36;95595.88;;;12.62;81.02
58092;BME280;43896;48.178;11.578;2023-04-28T11:47:03;95542.19;;;12.55;79.91
58092;BME280;43896;48.178;11.578;2023-04-28T11:49:30;95557.44;;;12.45;80.42
58092;BME280;43896;48.178;11.578;2023-04-28T11:51:57;95572.41;;;12.67;79.74
58092;BME280;43896;48.178;11.578;2023-04-28T11:54:28;95635.34;;;12.93;79.64
58092;BME280;43896;48.178;11.578;2023-04-28T11:56:55;95640.03;;;13.06;80.10
58092;BME280;43896;48.178;11.578;2023-04-28T11:59:26;95626.25;;;12.96;81.18
58092;BME280;43896;48.178;11.578;2023-04-28T12:01:56;95583.81;;;12.45;81.88
58092;BME280;43896;48.178;11.578;2023-04-28T12:04:30;95565.25;;;12.53;81.72
58092;BME280;43896;48.178;11.578;2023-04-28T12:09:25;95584.13;;;12.88;80.47
58092;BME280;43896;48.178;11.578;2023-04-28T12:11:55;95641.38;;;13.02;82.91
58092;BME280;43896;48.178;11.578;2023-04-28T12:14:21;95624.28;;;13.13;81.20
58092;BME280;43896;48.178;11.578;2023-04-28T12:16:46;95629.56;;;13.36;80.61
58092;BME280;43896;48.178;11.578;2023-04-28T12:19:13;95591.16;;;13.25;80.56
58092;BME280;43896;48.178;11.578;2023-04-28T12:21:40;95574.50;;;13.25;79.40
58092;BME280;43896;48.178;11.578;2023-04-28T12:24:15;95630.22;;;13.53;80.96
58092;BME280;43896;48.178;11.578;2023-04-28T12:26:41;95634.59;;;13.61;80.33
58092;BME280;43896;48.178;11.578;2023-04-28T12:29:07;95624.19;;;13.59;79.91
58092;BME280;43896;48.178;11.578;2023-04-28T12:31:47;95654.38;;;13.80;79.58
58092;BME280;43896;48.178;11.578;2023-04-28T12:34:13;95598.06;;;13.49;79.61
58092;BME280;43896;48.178;11.578;2023-04-28T12:36:40;95577.03;;;13.41;81.11
58092;BME280;43896;48.178;11.578;2023-04-28T12:39:05;95651.81;;;13.86;80.92
58092;BME280;43896;48.178;11.578;2023-04-28T12:41:30;95562.06;;;13.34;80.82
58092;BME280;43896;48.178;11.578;2023-04-28T12:43:56;95596.03;;;13.37;82.48
58092;BME280;43896;48.178;11.578;2023-04-28T12:46:22;95574.81;;;13.45;81.17
58092;BME280;43896;48.178;11.578;2023-04-28T12:48:47;95645.94;;;14.06;80.51
58092;BME280;43896;48.178;11.578;2023-04-28T12:51:12;95591.13;;;13.48;82.07
58092;BME280;43896;48.178;11.578;2023-04-28T12:53:38;95636.41;;;13.90;81.32
58092;BME280;43896;48.178;11.578;2023-04-28T12:56:03;95594.59;;;13.79;82.01
58092;BME280;43896;48.178;11.578;2023-04-28T12:58:29;95588.81;;;13.75;80.96
58092;BME280;43896;48.178;11.578;2023-04-28T13:00:55;95567.88;;;13.74;81.12
58092;BME280;43896;48.178;11.578;2023-04-28T13:03:20;95610.63;;;13.77;82.76
58092;BME280;43896;48.178;11.578;2023-04-28T13:05:46;95557.97;;;13.46;83.27
58092;BME280;43896;48.178;11.578;2023-04-28T13:08:11;95582.81;;;13.81;82.52
58092;BME280;43896;48.178;11.578;2023-04-28T13:10:39;95546.50;;;13.54;83.17
58092;BME280;43896;48.178;11.578;2023-04-28T13:13:04;95620.25;;;13.70;84.15
58092;BME280;43896;48.178;11.578;2023-04-28T13:15:30;95584.19;;;13.47;84.31
58092;BME280;43896;48.178;11.578;2023-04-28T13:17:55;95616.31;;;13.96;84.17
58092;BME280;43896;48.178;11.578;2023-04-28T13:20:21;95599.69;;;13.65;83.91
58092;BME280;43896;48.178;11.578;2023-04-28T13:22:47;95566.78;;;13.68;81.67
58092;BME280;43896;48.178;11.578;2023-04-28T13:25:12;95514.69;;;13.62;80.67
58092;BME280;43896;48.178;11.578;2023-04-28T13:27:37;95545.19;;;13.79;80.93
58092;BME280;43896;48.178;11.578;2023-04-28T13:30:03;95545.91;;;13.73;80.39
58092;BME280;43896;48.178;11.578;2023-04-28T13:32:29;95566.50;;;13.93;80.64
58092;BME280;43896;48.178;11.578;2023-04-28T13:34:55;95568.06;;;13.72;81.24
58092;BME280;43896;48.178;11.578;2023-04-28T13:37:21;95546.94;;;13.72;80.75
58092;BME280;43896;48.178;11.578;2023-04-28T13:39:46;95556.66;;;13.72;81.35
58092;BME280;43896;48.178;11.578;2023-04-28T13:42:11;95548.06;;;13.99;80.35
58092;BME280;43896;48.178;11.578;2023-04-28T13:44:37;95547.94;;;14.07;80.18
58092;BME280;43896;48.178;11.578;2023-04-28T13:47:02;95606.69;;;14.61;79.98
58092;BME280;43896;48.178;11.578;2023-04-28T13:49:33;95521.25;;;14.24;80.20
58092;BME280;43896;48.178;11.578;2023-04-28T13:51:58;95580.66;;;14.65;80.05
58092;BME280;43896;48.178;11.578;2023-04-28T13:54:24;95543.69;;;14.50;79.79
58092;BME280;43896;48.178;11.578;2023-04-28T13:56:52;95568.25;;;14.43;81.76
58092;BME280;43896;48.178;11.578;2023-04-28T13:59:18;95597.13;;;14.81;79.38
58092;BME280;43896;48.178;11.578;2023-04-28T14:01:43;95518.31;;;14.34;79.47
58092;BME280;43896;48.178;11.578;2023-04-28T14:04:09;95557.06;;;14.63;79.33
58092;BME280;43896;48.178;11.578;2023-04-28T14:06:35;95584.00;;;14.52;78.66
58092;BME280;43896;48.178;11.578;2023-04-28T14:09:01;95555.88;;;14.51;78.79
58092;BME280;43896;48.178;11.578;2023-04-28T14:11:27;95540.41;;;14.48;78.89
58092;BME280;43896;48.178;11.578;2023-04-28T14:13:53;95547.66;;;14.60;79.15
58092;BME280;43896;48.178;11.578;2023-04-28T14:16:18;95517.16;;;14.43;78.88
58092;BME280;43896;48.178;11.578;2023-04-28T14:18:43;95517.41;;;14.48;78.40
58092;BME280;43896;48.178;11.578;2023-04-28T14:21:09;95520.72;;;14.57;77.59
58092;BME280;43896;48.178;11.578;2023-04-28T14:23:35;95519.50;;;14.53;77.88
58092;BME280;43896;48.178;11.578;2023-04-28T14:26:00;95496.94;;;14.35;77.62
58092;BME280;43896;48.178;11.578;2023-04-28T14:28:26;95498.63;;;14.43;77.74
58092;BME280;43896;48.178;11.578;2023-04-28T14:30:52;95510.28;;;14.49;77.76
58092;BME280;43896;48.178;11.578;2023-04-28T14:33:18;95520.69;;;14.50;76.81
58092;BME280;43896;48.178;11.578;2023-04-28T14:35:43;95532.59;;;14.61;76.27
58092;BME280;43896;48.178;11.578;2023-04-28T14:38:09;95500.41;;;14.36;77.17
58092;BME280;43896;48.178;11.578;2023-04-28T14:40:34;95502.84;;;14.16;77.79
58092;BME280;43896;48.178;11.578;2023-04-28T14:42:59;95517.28;;;14.35;77.53
58092;BME280;43896;48.178;11.578;2023-04-28T14:45:25;95497.63;;;14.22;78.15
58092;BME280;43896;48.178;11.578;2023-04-28T14:47:50;95560.28;;;14.58;77.59
58092;BME280;43896;48.178;11.578;2023-04-28T14:50:16;95529.50;;;14.36;78.30
58092;BME280;43896;48.178;11.578;2023-04-28T14:52:42;95531.63;;;14.47;78.05
58092;BME280;43896;48.178;11.578;2023-04-28T14:55:08;95506.13;;;14.39;78.26
58092;BME280;43896;48.178;11.578;2023-04-28T14:57:34;95516.16;;;14.44;79.16
58092;BME280;43896;48.178;11.578;2023-04-28T14:59:59;95521.22;;;14.45;78.95
58092;BME280;43896;48.178;11.578;2023-04-28T15:02:25;95496.31;;;14.12;80.13
58092;BME280;43896;48.178;11.578;2023-04-28T15:04:54;95489.69;;;14.22;79.18
58092;BME280;43896;48.178;11.578;2023-04-28T15:07:19;95564.28;;;14.76;78.77
58092;BME280;43896;48.178;11.578;2023-04-28T15:09:47;95555.09;;;14.72;78.71
58092;BME280;43896;48.178;11.578;2023-04-28T15:12:20;95544.41;;;14.58;79.20
58092;BME280;43896;48.178;11.578;2023-04-28T15:15:19;95485.66;;;14.26;78.96
58092;BME280;43896;48.178;11.578;2023-04-28T15:17:52;95582.31;;;14.87;78.97
58092;BME280;43896;48.178;11.578;2023-04-28T15:20:32;95526.22;;;14.55;79.12
58092;BME280;43896;48.178;11.578;2023-04-28T15:23:08;95534.16;;;14.55;79.08
58092;BME280;43896;48.178;11.578;2023-04-28T15:25:43;95530.06;;;14.53;79.46
58092;BME280;43896;48.178;11.578;2023-04-28T15:28:16;95547.41;;;14.77;79.78
58092;BME280;43896;48.178;11.578;2023-04-28T15:31:02;95542.19;;;14.62;81.08
58092;BME280;43896;48.178;11.578;2023-04-28T15:33:58;95582.31;;;14.87;80.77
58092;BME280;43896;48.178;11.578;2023-04-28T15:36:23;95533.34;;;14.55;81.08
58092;BME280;43896;48.178;11.578;2023-04-28T15:38:49;95542.72;;;14.57;81.17
58092;BME280;43896;48.178;11.578;2023-04-28T15:41:16;95573.44;;;14.73;81.30
58092;BME280;43896;48.178;11.578;2023-04-28T15:43:41;95520.56;;;14.15;82.60
58092;BME280;43896;48.178;11.578;2023-04-28T15:46:08;95495.84;;;13.86;84.41
58092;BME280;43896;48.178;11.578;2023-04-28T15:48:36;95498.13;;;13.38;86.85
58092;BME280;43896;48.178;11.578;2023-04-28T15:51:03;95501.19;;;12.97;89.71
58092;BME280;43896;48.178;11.578;2023-04-28T15:53:32;95541.25;;;13.01;91.96
58092;BME280;43896;48.178;11.578;2023-04-28T15:56:00;95548.84;;;13.19;91.71
58092;BME280;43896;48.178;11.578;2023-04-28T15:58:26;95542.16;;;13.08;93.18
58092;BME280;43896;48.178;11.578;2023-04-28T16:00:52;95506.91;;;12.71;94.53
58092;BME280;43896;48.178;11.578;2023-04-28T16:03:17;95545.19;;;13.05;93.85
58092;BME280;43896;48.178;11.578;2023-04-28T16:05:43;95543.41;;;12.82;93.42
58092;BME280;43896;48.178;11.578;2023-04-28T16:08:09;95546.31;;;12.72;95.86
58092;BME280;43896;48.178;11.578;2023-04-28T16:10:35;95589.75;;;13.67;92.10
58092;BME280;43896;48.178;11.578;2023-04-28T16:13:00;95526.22;;;13.01;92.52
58092;BME280;43896;48.178;11.578;2023-04-28T16:15:26;95514.22;;;12.99;92.38
58092;BME280;43896;48.178;11.578;2023-04-28T16:17:51;95532.09;;;12.73;94.92
58092;BME280;43896;48.178;11.578;2023-04-28T16:20:17;95562.63;;;12.91;97.57
58092;BME280;43896;48.178;11.578;2023-04-28T16:22:43;95500.22;;;12.98;95.93
58092;BME280;43896;48.178;11.578;2023-04-28T16:25:10;95478.63;;;12.80;93.75
58092;BME280;43896;48.178;11.578;2023-04-28T16:27:36;95501.75;;;13.22;91.93
58092;BME280;43896;48.178;11.578;2023-04-28T16:30:03;95563.34;;;13.38;93.89
58092;BME280;43896;48.178;11.578;2023-04-28T16:32:33;95545.94;;;13.58;92.21
58092;BME280;43896;48.178;11.578;2023-04-28T16:35:00;95575.25;;;13.19;93.80
58092;BME280;43896;48.178;11.578;2023-04-28T16:37:26;95549.03;;;13.32;93.09
58092;BME280;43896;48.178;11.578;2023-04-28T16:39:54;95508.56;;;12.87;93.52
58092;BME280;43896;48.178;11.578;2023-04-28T16:42:42;95553.28;;;13.18;93.55
58092;BME280;43896;48.178;11.578;2023-04-28T16:45:20;95537.13;;;13.36;93.65
58092;BME280;43896;48.178;11.578;2023-04-28T16:48:15;95565.31;;;13.80;90.08
58092;BME280;43896;48.178;11.578;2023-04-28T16:50:50;95480.63;;;12.92;91.59
58092;BME280;43896;48.178;11.578;2023-04-28T16:53:19;95468.72;;;12.97;92.67
58092;BME280;43896;48.178;11.578;2023-04-28T16:56:15;95553.47;;;13.91;89.78
58092;BME280;43896;48.178;11.578;2023-04-28T17:01:52;95471.03;;;12.62;94.47
58092;BME280;43896;48.178;11.578;2023-04-28T17:04:37;95501.06;;;12.75;95.39
58092;BME280;43896;48.178;11.578;2023-04-28T17:07:08;95495.09;;;13.11;94.83
58092;BME280;43896;48.178;11.578;2023-04-28T17:09:34;95465.88;;;13.28;91.09
58092;BME280;43896;48.178;11.578;2023-04-28T17:12:19;95531.03;;;13.87;88.85
58092;BME280;43896;48.178;11.578;2023-04-28T17:18:27;95417.44;;;12.31;95.80
58092;BME280;43896;48.178;11.578;2023-04-28T17:20:53;95453.34;;;13.00;94.39
58092;BME280;43896;48.178;11.578;2023-04-28T17:23:18;95431.63;;;13.20;91.04
58092;BME280;43896;48.178;11.578;2023-04-28T17:25:44;95507.56;;;13.99;88.98
58092;BME280;43896;48.178;11.578;2023-04-28T17:28:09;95413.66;;;13.08;89.97
58092;BME280;43896;48.178;11.578;2023-04-28T17:30:36;95437.84;;;13.12;90.44
58092;BME280;43896;48.178;11.578;2023-04-28T17:33:04;95430.47;;;13.07;91.93
58092;BME280;43896;48.178;11.578;2023-04-28T17:35:29;95517.09;;;13.78;89.33
58092;BME280;43896;48.178;11.578;2023-04-28T17:37:57;95471.38;;;13.63;88.16
58092;BME280;43896;48.178;11.578;2023-04-28T17:40:30;95438.44;;;13.59;87.64
58092;BME280;43896;48.178;11.578;2023-04-28T17:42:56;95495.09;;;13.26;91.13
58092;BME280;43896;48.178;11.578;2023-04-28T17:45:25;95524.75;;;13.73;90.59
58092;BME280;43896;48.178;11.578;2023-04-28T17:48:00;95472.97;;;13.57;88.64
58092;BME280;43896;48.178;11.578;2023-04-28T17:50:36;95511.25;;;13.83;87.40
58092;BME280;43896;48.178;11.578;2023-04-28T17:53:03;95495.84;;;13.86;87.17
58092;BME280;43896;48.178;11.578;2023-04-28T17:55:28;95466.53;;;13.00;92.11
58092;BME280;43896;48.178;11.578;2023-04-28T17:57:54;95529.66;;;13.55;91.88
58092;BME280;43896;48.178;11.578;2023-04-28T18:00:19;95542.50;;;13.94;89.13
58092;BME280;43896;48.178;11.578;2023-04-28T18:02:45;95523.88;;;14.02;87.48
58092;BME280;43896;48.178;11.578;2023-04-28T18:05:10;95461.91;;;13.68;86.73
58092;BME280;43896;48.178;11.578;2023-04-28T18:08:05;95452.34;;;13.67;86.75
58092;BME280;43896;48.178;11.578;2023-04-28T18:10:37;95495.84;;;13.86;86.40
58092;BME280;43896;48.178;11.578;2023-04-28T18:13:04;95540.19;;;14.06;86.19
58092;BME280;43896;48.178;11.578;2023-04-28T18:15:40;95509.78;;;13.44;87.98
58092;BME280;43896;48.178;11.578;2023-04-28T18:18:07;95527.06;;;13.02;92.12
58092;BME280;43896;48.178;11.578;2023-04-28T18:20:33;95518.88;;;12.97;94.05
58092;BME280;43896;48.178;11.578;2023-04-28T18:22:58;95549.47;;;13.21;92.09
58092;BME280;43896;48.178;11.578;2023-04-28T18:25:29;95582.25;;;12.73;94.79
58092;BME280;43896;48.178;11.578;2023-04-28T18:28:06;95574.41;;;13.03;93.84
58092;BME280;43896;48.178;11.578;2023-04-28T18:30:36;95594.09;;;12.78;92.66
58092;BME280;43896;48.178;11.578;2023-04-28T18:33:03;95570.88;;;12.27;96.06
58092;BME280;43896;48.178;11.578;2023-04-28T18:35:28;95613.16;;;12.88;96.00
58092;BME280;43896;48.178;11.578;2023-04-28T18:37:57;95576.16;;;12.27;94.81
58092;BME280;43896;48.178;11.578;2023-04-28T18:40:30;95581.41;;;12.04;96.71
58092;BME280;43896;48.178;11.578;2023-04-28T18:43:07;95567.88;;;12.07;95.43
58092;BME280;43896;48.178;11.578;2023-04-28T18:45:37;95608.88;;;12.41;94.39
58092;BME280;43896;48.178;11.578;2023-04-28T18:48:05;95625.19;;;12.36;93.82
58092;BME280;43896;48.178;11.578;2023-04-28T18:50:41;95660.19;;;11.90;96.03
58092;BME280;43896;48.178;11.578;2023-04-28T18:53:06;95732.00;;;11.92;97.75
58092;BME280;43896;48.178;11.578;2023-04-28T18:55:34;95689.25;;;11.57;99.03
58092;BME280;43896;48.178;11.578;2023-04-28T18:58:00;95658.78;;;11.63;99.96
58092;BME280;43896;48.178;11.578;2023-04-28T19:00:32;95630.66;;;11.55;98.85
58092;BME280;43896;48.178;11.578;2023-04-28T19:03:00;95599.38;;;11.60;97.65
58092;BME280;43896;48.178;11.578;2023-04-28T19:05:29;95630.22;;;11.91;97.39
58092;BME280;43896;48.178;11.578;2023-04-28T19:07:59;95682.88;;;12.08;94.35
58092;BME280;43896;48.178;11.578;2023-04-28T19:10:25;95652.00;;;11.69;96.04
58092;BME280;43896;48.178;11.578;2023-04-28T19:12:50;95607.97;;;11.46;96.39
58092;BME280;43896;48.178;11.578;2023-04-28T19:15:19;95647.81;;;12.30;91.88
58092;BME280;43896;48.178;11.578;2023-04-28T19:17:49;95665.06;;;12.72;88.86
58092;BME280;43896;48.178;11.578;2023-04-28T19:20:18;95703.41;;;12.83;87.89
58092;BME280;43896;48.178;11.578;2023-04-28T19:22:46;95617.41;;;12.43;87.54
58092;BME280;43896;48.178;11.578;2023-04-28T19:25:12;95645.09;;;12.70;86.19
58092;BME280;43896;48.178;11.578;2023-04-28T19:27:39;95714.75;;;12.61;88.35
58092;BME280;43896;48.178;11.578;2023-04-28T19:30:06;95639.59;;;11.86;92.07
58092;BME280;43896;48.178;11.578;2023-04-28T19:32:33;95633.59;;;12.08;90.24
58092;BME280;43896;48.178;11.578;2023-04-28T19:34:58;95700.41;;;12.86;88.37
58092;BME280;43896;48.178;11.578;2023-04-28T19:37:24;95668.56;;;12.88;86.16
58092;BME280;43896;48.178;11.578;2023-04-28T19:39:52;95630.34;;;12.61;85.69
58092;BME280;43896;48.178;11.578;2023-04-28T19:42:17;95739.72;;;13.27;85.62
58092;BME280;43896;48.178;11.578;2023-04-28T19:44:55;95660.38;;;12.83;84.52
58092;BME280;43896;48.178;11.578;2023-04-28T19:47:28;95744.78;;;13.37;84.55
58092;BME280;43896;48.178;11.578;2023-04-28T19:49:56;95639.09;;;12.30;86.11
58092;BME280;43896;48.178;11.578;2023-04-28T19:52:21;95724.72;;;11.86;93.16